Værinformasjon

ENOV 201850Z VRB02KT 9999 VCSH FEW015 BKN045 03/02 Q1011 RMK WIND 2175FT 22009KT


ENSD 202020Z 05004KT 9999 -SHRA FEW018 SCT025 BKN032 05/02 Q1011 RMK WIND 1138FT 30004KT


ENAL 202320Z AUTO 22008KT 9999 BKN010/// OVC027/// 03/02 Q1009


ENML 202320Z AUTO 02006KT 9999NDV FEW046/// SCT060/// OVC070/// 03/01 Q1009